sensor_id;sensor_type;location;lat;lon;timestamp;temperature;humidity
15217;DHT22;7711;46.634;14.318;2022-07-10T00:02:21;16.80;99.90
15217;DHT22;7711;46.634;14.318;2022-07-10T00:04:48;16.80;99.90
15217;DHT22;7711;46.634;14.318;2022-07-10T00:07:15;16.70;99.90
15217;DHT22;7711;46.634;14.318;2022-07-10T00:09:44;16.70;99.90
15217;DHT22;7711;46.634;14.318;2022-07-10T00:12:11;16.70;99.90
15217;DHT22;7711;46.634;14.318;2022-07-10T00:14:38;16.60;99.90
15217;DHT22;7711;46.634;14.318;2022-07-10T00:17:06;16.70;99.90
15217;DHT22;7711;46.634;14.318;2022-07-10T00:19:35;16.60;99.90
15217;DHT22;7711;46.634;14.318;2022-07-10T00:22:05;16.60;99.90
15217;DHT22;7711;46.634;14.318;2022-07-10T00:24:32;16.50;99.90
15217;DHT22;7711;46.634;14.318;2022-07-10T00:26:59;16.50;99.90
15217;DHT22;7711;46.634;14.318;2022-07-10T00:29:27;16.40;99.90
15217;DHT22;7711;46.634;14.318;2022-07-10T00:31:54;16.40;99.90
15217;DHT22;7711;46.634;14.318;2022-07-10T00:34:21;16.40;99.90
15217;DHT22;7711;46.634;14.318;2022-07-10T00:36:49;16.40;99.90
15217;DHT22;7711;46.634;14.318;2022-07-10T00:39:19;16.40;99.90
15217;DHT22;7711;46.634;14.318;2022-07-10T00:41:48;16.50;99.90
15217;DHT22;7711;46.634;14.318;2022-07-10T00:44:17;16.70;99.90
15217;DHT22;7711;46.634;14.318;2022-07-10T00:46:44;16.70;99.90
15217;DHT22;7711;46.634;14.318;2022-07-10T00:49:14;16.60;99.90
15217;DHT22;7711;46.634;14.318;2022-07-10T00:51:41;16.60;99.90
15217;DHT22;7711;46.634;14.318;2022-07-10T00:54:10;16.60;99.90
15217;DHT22;7711;46.634;14.318;2022-07-10T00:56:37;16.60;99.90
15217;DHT22;7711;46.634;14.318;2022-07-10T00:59:06;16.60;99.90
15217;DHT22;7711;46.634;14.318;2022-07-10T01:01:36;16.50;99.90
15217;DHT22;7711;46.634;14.318;2022-07-10T01:04:05;16.60;99.90
15217;DHT22;7711;46.634;14.318;2022-07-10T01:06:32;16.50;99.90
15217;DHT22;7711;46.634;14.318;2022-07-10T01:09:02;16.60;99.90
15217;DHT22;7711;46.634;14.318;2022-07-10T01:11:32;16.50;99.90
15217;DHT22;7711;46.634;14.318;2022-07-10T01:14:02;16.50;99.90
15217;DHT22;7711;46.634;14.318;2022-07-10T01:16:29;16.50;99.90
15217;DHT22;7711;46.634;14.318;2022-07-10T01:18:57;16.50;99.90
15217;DHT22;7711;46.634;14.318;2022-07-10T01:21:27;16.50;99.90
15217;DHT22;7711;46.634;14.318;2022-07-10T01:23:54;16.50;99.90
15217;DHT22;7711;46.634;14.318;2022-07-10T01:26:22;16.50;99.90
15217;DHT22;7711;46.634;14.318;2022-07-10T01:28:53;16.50;99.90
15217;DHT22;7711;46.634;14.318;2022-07-10T01:31:25;16.50;99.90
15217;DHT22;7711;46.634;14.318;2022-07-10T01:33:53;16.50;99.90
15217;DHT22;7711;46.634;14.318;2022-07-10T01:36:21;16.40;99.90
15217;DHT22;7711;46.634;14.318;2022-07-10T01:38:53;16.40;99.90
15217;DHT22;7711;46.634;14.318;2022-07-10T01:41:26;16.40;99.90
15217;DHT22;7711;46.634;14.318;2022-07-10T01:43:57;16.30;99.90
15217;DHT22;7711;46.634;14.318;2022-07-10T01:46:28;16.50;99.90
15217;DHT22;7711;46.634;14.318;2022-07-10T01:48:56;16.50;99.90
15217;DHT22;7711;46.634;14.318;2022-07-10T01:51:26;16.50;99.90
15217;DHT22;7711;46.634;14.318;2022-07-10T01:53:56;16.60;99.90
15217;DHT22;7711;46.634;14.318;2022-07-10T01:56:26;16.60;99.90
15217;DHT22;7711;46.634;14.318;2022-07-10T01:58:53;16.60;99.90
15217;DHT22;7711;46.634;14.318;2022-07-10T02:01:21;16.70;99.90
15217;DHT22;7711;46.634;14.318;2022-07-10T02:03:51;16.70;99.90
15217;DHT22;7711;46.634;14.318;2022-07-10T02:06:39;16.70;99.90
15217;DHT22;7711;46.634;14.318;2022-07-10T02:09:08;16.70;99.90
15217;DHT22;7711;46.634;14.318;2022-07-10T02:11:38;16.70;99.90
15217;DHT22;7711;46.634;14.318;2022-07-10T02:14:06;16.60;99.90
15217;DHT22;7711;46.634;14.318;2022-07-10T02:16:34;16.70;99.90
15217;DHT22;7711;46.634;14.318;2022-07-10T02:19:04;16.60;99.90
15217;DHT22;7711;46.634;14.318;2022-07-10T02:21:34;16.60;99.90
15217;DHT22;7711;46.634;14.318;2022-07-10T02:24:02;16.60;99.90
15217;DHT22;7711;46.634;14.318;2022-07-10T02:26:31;16.60;99.90
15217;DHT22;7711;46.634;14.318;2022-07-10T02:28:59;16.50;99.90
15217;DHT22;7711;46.634;14.318;2022-07-10T02:31:26;16.50;99.90
15217;DHT22;7711;46.634;14.318;2022-07-10T02:33:54;16.50;99.90
15217;DHT22;7711;46.634;14.318;2022-07-10T02:36:22;16.40;99.90
15217;DHT22;7711;46.634;14.318;2022-07-10T02:38:53;16.30;99.90
15217;DHT22;7711;46.634;14.318;2022-07-10T02:41:20;16.30;99.90
15217;DHT22;7711;46.634;14.318;2022-07-10T02:43:51;16.20;99.90
15217;DHT22;7711;46.634;14.318;2022-07-10T02:46:19;16.10;99.90
15217;DHT22;7711;46.634;14.318;2022-07-10T02:48:51;15.90;99.90
15217;DHT22;7711;46.634;14.318;2022-07-10T02:51:18;15.80;99.90
15217;DHT22;7711;46.634;14.318;2022-07-10T02:53:45;15.80;99.90
15217;DHT22;7711;46.634;14.318;2022-07-10T02:56:17;15.80;99.90
15217;DHT22;7711;46.634;14.318;2022-07-10T02:58:46;15.70;99.90
15217;DHT22;7711;46.634;14.318;2022-07-10T03:01:14;15.70;99.90
15217;DHT22;7711;46.634;14.318;2022-07-10T03:03:41;15.70;99.90
15217;DHT22;7711;46.634;14.318;2022-07-10T03:06:09;15.70;99.90
15217;DHT22;7711;46.634;14.318;2022-07-10T03:08:38;15.80;99.90
15217;DHT22;7711;46.634;14.318;2022-07-10T03:11:05;15.70;99.90
15217;DHT22;7711;46.634;14.318;2022-07-10T03:13:32;15.70;99.90
15217;DHT22;7711;46.634;14.318;2022-07-10T03:16:02;15.70;99.90
15217;DHT22;7711;46.634;14.318;2022-07-10T03:18:30;15.80;99.90
15217;DHT22;7711;46.634;14.318;2022-07-10T03:20:58;15.80;99.90
15217;DHT22;7711;46.634;14.318;2022-07-10T03:23:28;15.70;99.90
15217;DHT22;7711;46.634;14.318;2022-07-10T03:25:58;15.80;99.90
15217;DHT22;7711;46.634;14.318;2022-07-10T03:28:28;15.70;99.90
15217;DHT22;7711;46.634;14.318;2022-07-10T03:30:59;15.70;99.90
15217;DHT22;7711;46.634;14.318;2022-07-10T03:33:26;15.60;99.90
15217;DHT22;7711;46.634;14.318;2022-07-10T03:35:58;15.60;99.90
15217;DHT22;7711;46.634;14.318;2022-07-10T03:38:26;15.50;99.90
15217;DHT22;7711;46.634;14.318;2022-07-10T03:40:56;15.50;99.90
15217;DHT22;7711;46.634;14.318;2022-07-10T03:43:26;15.50;99.90
15217;DHT22;7711;46.634;14.318;2022-07-10T03:45:56;15.60;99.90
15217;DHT22;7711;46.634;14.318;2022-07-10T03:48:24;15.70;99.90
15217;DHT22;7711;46.634;14.318;2022-07-10T03:50:51;15.60;99.90
15217;DHT22;7711;46.634;14.318;2022-07-10T03:53:23;15.60;99.90
15217;DHT22;7711;46.634;14.318;2022-07-10T03:55:50;15.60;99.90
15217;DHT22;7711;46.634;14.318;2022-07-10T03:58:19;15.50;99.90
15217;DHT22;7711;46.634;14.318;2022-07-10T04:00:45;15.50;99.90
15217;DHT22;7711;46.634;14.318;2022-07-10T04:03:14;15.50;99.90
15217;DHT22;7711;46.634;14.318;2022-07-10T04:05:44;15.50;99.90
15217;DHT22;7711;46.634;14.318;2022-07-10T04:08:11;15.60;99.90
15217;DHT22;7711;46.634;14.318;2022-07-10T04:10:41;15.70;99.90
15217;DHT22;7711;46.634;14.318;2022-07-10T04:13:10;15.70;99.90
15217;DHT22;7711;46.634;14.318;2022-07-10T04:15:37;15.50;99.90
15217;DHT22;7711;46.634;14.318;2022-07-10T04:18:07;15.50;99.90
15217;DHT22;7711;46.634;14.318;2022-07-10T04:20:34;15.50;99.90
15217;DHT22;7711;46.634;14.318;2022-07-10T04:23:03;15.70;99.90
15217;DHT22;7711;46.634;14.318;2022-07-10T04:25:30;15.80;99.90
15217;DHT22;7711;46.634;14.318;2022-07-10T04:27:58;15.80;99.90
15217;DHT22;7711;46.634;14.318;2022-07-10T04:30:26;15.90;99.90
15217;DHT22;7711;46.634;14.318;2022-07-10T04:32:54;16.10;99.90
15217;DHT22;7711;46.634;14.318;2022-07-10T04:35:21;16.00;99.90
15217;DHT22;7711;46.634;14.318;2022-07-10T04:37:49;16.20;99.90
15217;DHT22;7711;46.634;14.318;2022-07-10T04:40:16;16.30;99.90
15217;DHT22;7711;46.634;14.318;2022-07-10T04:42:43;16.30;99.90
15217;DHT22;7711;46.634;14.318;2022-07-10T04:45:12;16.30;99.90
15217;DHT22;7711;46.634;14.318;2022-07-10T04:47:39;16.40;99.90
15217;DHT22;7711;46.634;14.318;2022-07-10T04:50:09;16.40;99.90
15217;DHT22;7711;46.634;14.318;2022-07-10T04:52:36;16.30;99.90
15217;DHT22;7711;46.634;14.318;2022-07-10T04:55:06;16.30;99.90
15217;DHT22;7711;46.634;14.318;2022-07-10T04:57:36;16.30;99.90
15217;DHT22;7711;46.634;14.318;2022-07-10T05:00:05;16.30;99.90
15217;DHT22;7711;46.634;14.318;2022-07-10T05:02:34;16.40;99.90
15217;DHT22;7711;46.634;14.318;2022-07-10T05:05:01;16.40;99.90
15217;DHT22;7711;46.634;14.318;2022-07-10T05:07:31;16.40;99.90
15217;DHT22;7711;46.634;14.318;2022-07-10T05:09:58;16.20;99.90
15217;DHT22;7711;46.634;14.318;2022-07-10T05:12:25;16.20;99.90
15217;DHT22;7711;46.634;14.318;2022-07-10T05:14:53;16.10;99.90
15217;DHT22;7711;46.634;14.318;2022-07-10T05:17:20;16.10;99.90
15217;DHT22;7711;46.634;14.318;2022-07-10T05:19:48;16.10;99.90
15217;DHT22;7711;46.634;14.318;2022-07-10T05:22:19;16.10;99.90
15217;DHT22;7711;46.634;14.318;2022-07-10T05:24:46;16.10;99.90
15217;DHT22;7711;46.634;14.318;2022-07-10T05:27:15;16.00;99.90
15217;DHT22;7711;46.634;14.318;2022-07-10T05:29:44;16.20;99.90
15217;DHT22;7711;46.634;14.318;2022-07-10T05:32:12;16.10;99.90
15217;DHT22;7711;46.634;14.318;2022-07-10T05:34:39;16.10;99.90
15217;DHT22;7711;46.634;14.318;2022-07-10T05:37:08;16.10;99.90
15217;DHT22;7711;46.634;14.318;2022-07-10T05:39:35;16.10;99.90
15217;DHT22;7711;46.634;14.318;2022-07-10T05:42:02;16.00;99.90
15217;DHT22;7711;46.634;14.318;2022-07-10T05:44:32;15.90;99.90
15217;DHT22;7711;46.634;14.318;2022-07-10T05:46:59;15.90;99.90
15217;DHT22;7711;46.634;14.318;2022-07-10T05:49:28;16.00;99.90
15217;DHT22;7711;46.634;14.318;2022-07-10T05:51:58;16.00;99.90
15217;DHT22;7711;46.634;14.318;2022-07-10T05:54:27;16.00;99.90
15217;DHT22;7711;46.634;14.318;2022-07-10T05:56:54;16.10;99.90
15217;DHT22;7711;46.634;14.318;2022-07-10T05:59:24;16.20;99.90
15217;DHT22;7711;46.634;14.318;2022-07-10T06:01:51;16.40;99.90
15217;DHT22;7711;46.634;14.318;2022-07-10T06:04:18;16.30;99.90
15217;DHT22;7711;46.634;14.318;2022-07-10T06:06:50;16.30;99.90
15217;DHT22;7711;46.634;14.318;2022-07-10T06:09:17;16.30;99.90
15217;DHT22;7711;46.634;14.318;2022-07-10T06:11:46;16.40;99.90
15217;DHT22;7711;46.634;14.318;2022-07-10T06:14:14;16.50;99.90
15217;DHT22;7711;46.634;14.318;2022-07-10T06:16:42;16.60;99.90
15217;DHT22;7711;46.634;14.318;2022-07-10T06:19:11;16.60;99.90
15217;DHT22;7711;46.634;14.318;2022-07-10T06:21:39;16.60;99.90
15217;DHT22;7711;46.634;14.318;2022-07-10T06:24:09;16.70;99.90
15217;DHT22;7711;46.634;14.318;2022-07-10T06:26:36;16.70;99.90
15217;DHT22;7711;46.634;14.318;2022-07-10T06:29:05;16.70;99.90
15217;DHT22;7711;46.634;14.318;2022-07-10T06:31:34;16.80;99.90
15217;DHT22;7711;46.634;14.318;2022-07-10T06:34:01;16.70;99.90
15217;DHT22;7711;46.634;14.318;2022-07-10T06:36:29;16.60;99.90
15217;DHT22;7711;46.634;14.318;2022-07-10T06:38:56;16.60;99.90
15217;DHT22;7711;46.634;14.318;2022-07-10T06:41:26;16.50;99.90
15217;DHT22;7711;46.634;14.318;2022-07-10T06:43:56;16.50;99.90
15217;DHT22;7711;46.634;14.318;2022-07-10T06:46:25;16.70;99.90
15217;DHT22;7711;46.634;14.318;2022-07-10T06:48:56;16.80;99.90
15217;DHT22;7711;46.634;14.318;2022-07-10T06:51:22;16.70;99.90
15217;DHT22;7711;46.634;14.318;2022-07-10T06:53:50;16.80;99.90
15217;DHT22;7711;46.634;14.318;2022-07-10T06:56:19;17.00;99.90
15217;DHT22;7711;46.634;14.318;2022-07-10T06:58:46;17.10;99.90
15217;DHT22;7711;46.634;14.318;2022-07-10T07:01:13;17.00;99.90
15217;DHT22;7711;46.634;14.318;2022-07-10T07:03:42;17.20;99.90
15217;DHT22;7711;46.634;14.318;2022-07-10T07:06:09;17.30;99.90
15217;DHT22;7711;46.634;14.318;2022-07-10T07:08:36;17.20;99.90
15217;DHT22;7711;46.634;14.318;2022-07-10T07:11:03;17.30;99.90
15217;DHT22;7711;46.634;14.318;2022-07-10T07:13:31;17.40;99.90
15217;DHT22;7711;46.634;14.318;2022-07-10T07:16:00;17.30;99.90
15217;DHT22;7711;46.634;14.318;2022-07-10T07:18:31;17.20;99.90
15217;DHT22;7711;46.634;14.318;2022-07-10T07:21:02;17.10;99.90
15217;DHT22;7711;46.634;14.318;2022-07-10T07:23:48;17.00;99.90
15217;DHT22;7711;46.634;14.318;2022-07-10T07:26:15;16.80;99.90
15217;DHT22;7711;46.634;14.318;2022-07-10T07:28:43;16.70;99.90
15217;DHT22;7711;46.634;14.318;2022-07-10T07:31:10;16.70;99.90
15217;DHT22;7711;46.634;14.318;2022-07-10T07:33:37;16.50;99.90
15217;DHT22;7711;46.634;14.318;2022-07-10T07:36:06;16.60;99.90
15217;DHT22;7711;46.634;14.318;2022-07-10T07:38:33;16.50;99.90
15217;DHT22;7711;46.634;14.318;2022-07-10T07:41:01;16.50;99.90
15217;DHT22;7711;46.634;14.318;2022-07-10T07:43:28;16.70;99.90
15217;DHT22;7711;46.634;14.318;2022-07-10T07:45:55;16.70;99.90
15217;DHT22;7711;46.634;14.318;2022-07-10T07:48:25;16.80;99.90
15217;DHT22;7711;46.634;14.318;2022-07-10T07:50:52;16.70;99.90
15217;DHT22;7711;46.634;14.318;2022-07-10T07:53:21;17.00;99.90
15217;DHT22;7711;46.634;14.318;2022-07-10T07:55:48;17.10;99.90
15217;DHT22;7711;46.634;14.318;2022-07-10T07:58:15;17.30;99.90
15217;DHT22;7711;46.634;14.318;2022-07-10T08:00:42;17.50;99.90
15217;DHT22;7711;46.634;14.318;2022-07-10T08:03:09;17.70;99.90
15217;DHT22;7711;46.634;14.318;2022-07-10T08:05:38;17.60;99.90
15217;DHT22;7711;46.634;14.318;2022-07-10T08:08:06;17.40;99.90
15217;DHT22;7711;46.634;14.318;2022-07-10T08:10:36;17.10;99.90
15217;DHT22;7711;46.634;14.318;2022-07-10T08:13:05;17.20;99.90
15217;DHT22;7711;46.634;14.318;2022-07-10T08:15:33;17.30;99.90
15217;DHT22;7711;46.634;14.318;2022-07-10T08:18:01;17.50;99.90
15217;DHT22;7711;46.634;14.318;2022-07-10T08:20:30;17.40;99.90
15217;DHT22;7711;46.634;14.318;2022-07-10T08:22:57;17.20;99.90
15217;DHT22;7711;46.634;14.318;2022-07-10T08:25:25;17.60;99.90
15217;DHT22;7711;46.634;14.318;2022-07-10T08:27:54;17.60;99.90
15217;DHT22;7711;46.634;14.318;2022-07-10T08:30:21;17.90;99.90
15217;DHT22;7711;46.634;14.318;2022-07-10T08:32:48;18.10;99.90
15217;DHT22;7711;46.634;14.318;2022-07-10T08:35:17;18.10;99.90
15217;DHT22;7711;46.634;14.318;2022-07-10T08:37:45;17.70;99.90
15217;DHT22;7711;46.634;14.318;2022-07-10T08:40:16;17.90;99.90
15217;DHT22;7711;46.634;14.318;2022-07-10T08:42:44;18.50;99.90
15217;DHT22;7711;46.634;14.318;2022-07-10T08:45:13;18.90;99.90
15217;DHT22;7711;46.634;14.318;2022-07-10T08:47:41;19.10;99.90
15217;DHT22;7711;46.634;14.318;2022-07-10T08:50:16;18.80;99.90
15217;DHT22;7711;46.634;14.318;2022-07-10T08:52:52;18.60;99.90
15217;DHT22;7711;46.634;14.318;2022-07-10T08:55:25;18.20;99.90
15217;DHT22;7711;46.634;14.318;2022-07-10T08:57:55;18.10;99.90
15217;DHT22;7711;46.634;14.318;2022-07-10T09:00:28;18.60;99.90
15217;DHT22;7711;46.634;14.318;2022-07-10T09:02:55;18.50;99.90
15217;DHT22;7711;46.634;14.318;2022-07-10T09:05:23;19.10;99.90
15217;DHT22;7711;46.634;14.318;2022-07-10T09:07:51;19.40;99.90
15217;DHT22;7711;46.634;14.318;2022-07-10T09:10:26;19.40;99.90
15217;DHT22;7711;46.634;14.318;2022-07-10T09:12:55;19.40;99.90
15217;DHT22;7711;46.634;14.318;2022-07-10T09:15:26;19.50;99.90
15217;DHT22;7711;46.634;14.318;2022-07-10T09:18:00;20.00;99.90
15217;DHT22;7711;46.634;14.318;2022-07-10T09:20:29;20.20;99.90
15217;DHT22;7711;46.634;14.318;2022-07-10T09:22:57;20.10;99.90
15217;DHT22;7711;46.634;14.318;2022-07-10T09:25:31;19.70;99.90
15217;DHT22;7711;46.634;14.318;2022-07-10T09:28:02;19.30;99.90
15217;DHT22;7711;46.634;14.318;2022-07-10T09:30:34;20.00;99.90
15217;DHT22;7711;46.634;14.318;2022-07-10T09:33:22;20.20;99.90
15217;DHT22;7711;46.634;14.318;2022-07-10T09:36:04;20.30;99.90
15217;DHT22;7711;46.634;14.318;2022-07-10T09:38:47;20.20;99.90
15217;DHT22;7711;46.634;14.318;2022-07-10T09:41:17;20.20;99.90
15217;DHT22;7711;46.634;14.318;2022-07-10T09:43:46;20.30;99.90
15217;DHT22;7711;46.634;14.318;2022-07-10T09:46:14;20.60;99.90
15217;DHT22;7711;46.634;14.318;2022-07-10T09:48:43;21.40;99.90
15217;DHT22;7711;46.634;14.318;2022-07-10T09:51:12;21.30;99.90
15217;DHT22;7711;46.634;14.318;2022-07-10T09:53:43;21.20;99.90
15217;DHT22;7711;46.634;14.318;2022-07-10T09:56:12;21.30;99.90
15217;DHT22;7711;46.634;14.318;2022-07-10T09:58:40;21.40;99.90
15217;DHT22;7711;46.634;14.318;2022-07-10T10:01:11;21.40;99.90
15217;DHT22;7711;46.634;14.318;2022-07-10T10:03:39;21.40;99.90
15217;DHT22;7711;46.634;14.318;2022-07-10T10:06:11;21.20;99.90
15217;DHT22;7711;46.634;14.318;2022-07-10T10:08:48;21.20;99.90
15217;DHT22;7711;46.634;14.318;2022-07-10T10:11:19;21.60;99.90
15217;DHT22;7711;46.634;14.318;2022-07-10T10:13:49;21.70;99.90
15217;DHT22;7711;46.634;14.318;2022-07-10T10:16:17;21.80;99.90
15217;DHT22;7711;46.634;14.318;2022-07-10T10:18:46;22.00;99.90
15217;DHT22;7711;46.634;14.318;2022-07-10T10:21:41;22.60;99.90
15217;DHT22;7711;46.634;14.318;2022-07-10T10:24:08;22.80;99.90
15217;DHT22;7711;46.634;14.318;2022-07-10T10:26:38;23.00;99.90
15217;DHT22;7711;46.634;14.318;2022-07-10T10:29:06;22.60;99.90
15217;DHT22;7711;46.634;14.318;2022-07-10T10:31:34;22.50;99.90
15217;DHT22;7711;46.634;14.318;2022-07-10T10:34:01;22.30;99.90
15217;DHT22;7711;46.634;14.318;2022-07-10T10:36:46;22.50;99.90
15217;DHT22;7711;46.634;14.318;2022-07-10T10:39:17;22.80;99.90
15217;DHT22;7711;46.634;14.318;2022-07-10T10:41:50;23.20;99.90
15217;DHT22;7711;46.634;14.318;2022-07-10T10:44:26;23.60;99.90
15217;DHT22;7711;46.634;14.318;2022-07-10T10:47:04;24.00;99.90
15217;DHT22;7711;46.634;14.318;2022-07-10T10:49:54;24.10;99.90
15217;DHT22;7711;46.634;14.318;2022-07-10T10:52:26;24.50;99.90
15217;DHT22;7711;46.634;14.318;2022-07-10T10:55:09;24.30;99.90
15217;DHT22;7711;46.634;14.318;2022-07-10T10:57:41;24.80;99.90
15217;DHT22;7711;46.634;14.318;2022-07-10T11:00:16;24.40;99.90
15217;DHT22;7711;46.634;14.318;2022-07-10T11:03:16;23.80;99.90
15217;DHT22;7711;46.634;14.318;2022-07-10T11:05:44;23.20;99.90
15217;DHT22;7711;46.634;14.318;2022-07-10T11:08:13;23.10;99.90
15217;DHT22;7711;46.634;14.318;2022-07-10T11:10:42;22.80;99.90
15217;DHT22;7711;46.634;14.318;2022-07-10T11:13:11;22.50;99.90
15217;DHT22;7711;46.634;14.318;2022-07-10T11:15:41;22.50;99.90
15217;DHT22;7711;46.634;14.318;2022-07-10T11:18:11;22.60;99.90
15217;DHT22;7711;46.634;14.318;2022-07-10T11:20:39;22.90;99.90
15217;DHT22;7711;46.634;14.318;2022-07-10T11:23:34;22.60;99.90
15217;DHT22;7711;46.634;14.318;2022-07-10T11:26:05;22.70;99.90
15217;DHT22;7711;46.634;14.318;2022-07-10T11:28:53;22.80;99.90
15217;DHT22;7711;46.634;14.318;2022-07-10T11:31:28;23.30;99.90
15217;DHT22;7711;46.634;14.318;2022-07-10T11:34:00;24.00;99.90
15217;DHT22;7711;46.634;14.318;2022-07-10T11:36:28;24.40;99.90
15217;DHT22;7711;46.634;14.318;2022-07-10T11:38:59;24.20;99.90
15217;DHT22;7711;46.634;14.318;2022-07-10T11:41:30;24.20;99.90
15217;DHT22;7711;46.634;14.318;2022-07-10T11:44:01;24.40;99.90
15217;DHT22;7711;46.634;14.318;2022-07-10T11:46:30;23.70;99.90
15217;DHT22;7711;46.634;14.318;2022-07-10T11:48:58;22.60;99.90
15217;DHT22;7711;46.634;14.318;2022-07-10T11:51:27;22.40;99.90
15217;DHT22;7711;46.634;14.318;2022-07-10T11:54:03;22.20;99.90
15217;DHT22;7711;46.634;14.318;2022-07-10T11:56:35;21.80;99.90
15217;DHT22;7711;46.634;14.318;2022-07-10T11:59:03;21.80;99.90
15217;DHT22;7711;46.634;14.318;2022-07-10T12:01:32;21.90;99.90
15217;DHT22;7711;46.634;14.318;2022-07-10T12:04:01;21.90;99.90
15217;DHT22;7711;46.634;14.318;2022-07-10T12:06:30;22.00;99.90
15217;DHT22;7711;46.634;14.318;2022-07-10T12:09:03;22.00;99.90
15217;DHT22;7711;46.634;14.318;2022-07-10T12:11:30;22.00;99.90
15217;DHT22;7711;46.634;14.318;2022-07-10T12:14:10;22.00;99.90
15217;DHT22;7711;46.634;14.318;2022-07-10T12:16:38;22.00;99.90
15217;DHT22;7711;46.634;14.318;2022-07-10T12:19:08;22.30;99.90
15217;DHT22;7711;46.634;14.318;2022-07-10T12:21:36;22.40;99.90
15217;DHT22;7711;46.634;14.318;2022-07-10T12:24:06;22.70;99.90
15217;DHT22;7711;46.634;14.318;2022-07-10T12:26:34;23.80;99.90
15217;DHT22;7711;46.634;14.318;2022-07-10T12:29:02;24.70;99.90
15217;DHT22;7711;46.634;14.318;2022-07-10T12:31:32;24.60;99.90
15217;DHT22;7711;46.634;14.318;2022-07-10T12:34:04;24.40;99.90
15217;DHT22;7711;46.634;14.318;2022-07-10T12:36:42;24.30;99.90
15217;DHT22;7711;46.634;14.318;2022-07-10T12:39:12;24.20;99.90
15217;DHT22;7711;46.634;14.318;2022-07-10T12:41:58;24.20;99.90
15217;DHT22;7711;46.634;14.318;2022-07-10T12:44:40;23.60;99.90
15217;DHT22;7711;46.634;14.318;2022-07-10T12:47:08;23.30;99.90
15217;DHT22;7711;46.634;14.318;2022-07-10T12:49:54;23.90;99.90
15217;DHT22;7711;46.634;14.318;2022-07-10T12:52:23;24.20;99.90
15217;DHT22;7711;46.634;14.318;2022-07-10T12:55:10;24.50;99.90
15217;DHT22;7711;46.634;14.318;2022-07-10T12:57:49;24.50;98.40
15217;DHT22;7711;46.634;14.318;2022-07-10T13:00:19;24.80;98.90
15217;DHT22;7711;46.634;14.318;2022-07-10T13:02:47;24.90;98.20
15217;DHT22;7711;46.634;14.318;2022-07-10T13:05:26;24.80;98.80
15217;DHT22;7711;46.634;14.318;2022-07-10T13:08:03;24.60;97.90
15217;DHT22;7711;46.634;14.318;2022-07-10T13:10:32;24.00;97.10
15217;DHT22;7711;46.634;14.318;2022-07-10T13:13:00;24.20;98.90
15217;DHT22;7711;46.634;14.318;2022-07-10T13:15:27;24.20;97.70
15217;DHT22;7711;46.634;14.318;2022-07-10T13:17:55;24.10;96.60
15217;DHT22;7711;46.634;14.318;2022-07-10T13:20:25;24.00;97.00
15217;DHT22;7711;46.634;14.318;2022-07-10T13:22:52;23.80;96.20
15217;DHT22;7711;46.634;14.318;2022-07-10T13:25:22;23.70;96.70
15217;DHT22;7711;46.634;14.318;2022-07-10T13:27:52;23.50;98.50
15217;DHT22;7711;46.634;14.318;2022-07-10T13:30:19;23.80;98.90
15217;DHT22;7711;46.634;14.318;2022-07-10T13:32:46;23.70;98.20
15217;DHT22;7711;46.634;14.318;2022-07-10T13:35:13;23.70;97.00
15217;DHT22;7711;46.634;14.318;2022-07-10T13:37:41;23.70;97.00
15217;DHT22;7711;46.634;14.318;2022-07-10T13:40:09;23.30;96.80
15217;DHT22;7711;46.634;14.318;2022-07-10T13:42:36;23.50;94.90
15217;DHT22;7711;46.634;14.318;2022-07-10T13:45:06;24.00;94.20
15217;DHT22;7711;46.634;14.318;2022-07-10T13:47:34;23.60;95.40
15217;DHT22;7711;46.634;14.318;2022-07-10T13:50:02;23.10;94.50
15217;DHT22;7711;46.634;14.318;2022-07-10T13:52:29;22.90;95.10
15217;DHT22;7711;46.634;14.318;2022-07-10T13:54:56;22.80;95.30
15217;DHT22;7711;46.634;14.318;2022-07-10T13:57:23;22.80;95.70
15217;DHT22;7711;46.634;14.318;2022-07-10T13:59:52;22.90;95.80
15217;DHT22;7711;46.634;14.318;2022-07-10T14:02:21;23.10;95.00
15217;DHT22;7711;46.634;14.318;2022-07-10T14:04:48;22.90;96.10
15217;DHT22;7711;46.634;14.318;2022-07-10T14:07:16;23.00;94.90
15217;DHT22;7711;46.634;14.318;2022-07-10T14:09:43;23.10;95.00
15217;DHT22;7711;46.634;14.318;2022-07-10T14:12:10;23.30;95.10
15217;DHT22;7711;46.634;14.318;2022-07-10T14:14:38;23.40;95.50
15217;DHT22;7711;46.634;14.318;2022-07-10T14:17:05;23.10;95.40
15217;DHT22;7711;46.634;14.318;2022-07-10T14:19:34;23.20;96.70
15217;DHT22;7711;46.634;14.318;2022-07-10T14:22:01;23.20;97.10
15217;DHT22;7711;46.634;14.318;2022-07-10T14:24:28;23.10;97.30
15217;DHT22;7711;46.634;14.318;2022-07-10T14:26:58;23.10;97.20
15217;DHT22;7711;46.634;14.318;2022-07-10T14:29:25;23.20;97.40
15217;DHT22;7711;46.634;14.318;2022-07-10T14:31:53;23.20;98.00
15217;DHT22;7711;46.634;14.318;2022-07-10T14:34:20;23.10;97.60
15217;DHT22;7711;46.634;14.318;2022-07-10T14:36:52;23.10;97.90
15217;DHT22;7711;46.634;14.318;2022-07-10T14:39:22;22.90;98.30
15217;DHT22;7711;46.634;14.318;2022-07-10T14:41:49;22.90;97.80
15217;DHT22;7711;46.634;14.318;2022-07-10T14:44:17;22.90;97.20
15217;DHT22;7711;46.634;14.318;2022-07-10T14:46:44;22.90;96.40
15217;DHT22;7711;46.634;14.318;2022-07-10T14:49:11;22.80;95.90
15217;DHT22;7711;46.634;14.318;2022-07-10T14:51:38;22.90;94.30
15217;DHT22;7711;46.634;14.318;2022-07-10T14:54:07;22.90;95.10
15217;DHT22;7711;46.634;14.318;2022-07-10T14:56:36;23.00;94.40
15217;DHT22;7711;46.634;14.318;2022-07-10T14:59:04;22.90;93.80
15217;DHT22;7711;46.634;14.318;2022-07-10T15:01:32;23.10;92.90
15217;DHT22;7711;46.634;14.318;2022-07-10T15:03:59;23.00;92.20
15217;DHT22;7711;46.634;14.318;2022-07-10T15:06:27;22.90;92.30
15217;DHT22;7711;46.634;14.318;2022-07-10T15:08:54;22.80;92.20
15217;DHT22;7711;46.634;14.318;2022-07-10T15:11:22;22.60;90.00
15217;DHT22;7711;46.634;14.318;2022-07-10T15:13:51;22.50;87.20
15217;DHT22;7711;46.634;14.318;2022-07-10T15:16:24;22.70;85.20
15217;DHT22;7711;46.634;14.318;2022-07-10T15:18:52;22.40;84.30
15217;DHT22;7711;46.634;14.318;2022-07-10T15:21:22;22.60;85.90
15217;DHT22;7711;46.634;14.318;2022-07-10T15:23:49;22.70;85.80
15217;DHT22;7711;46.634;14.318;2022-07-10T15:26:16;24.30;84.80
15217;DHT22;7711;46.634;14.318;2022-07-10T15:28:45;24.60;81.00
15217;DHT22;7711;46.634;14.318;2022-07-10T15:31:12;24.50;82.90
15217;DHT22;7711;46.634;14.318;2022-07-10T15:33:40;24.60;83.10
15217;DHT22;7711;46.634;14.318;2022-07-10T15:36:10;24.50;83.20
15217;DHT22;7711;46.634;14.318;2022-07-10T15:38:37;24.50;83.90
15217;DHT22;7711;46.634;14.318;2022-07-10T15:41:05;24.40;79.40
15217;DHT22;7711;46.634;14.318;2022-07-10T15:43:36;24.60;81.70
15217;DHT22;7711;46.634;14.318;2022-07-10T15:46:06;24.40;79.90